createdAt,value
2018-07-15T19:14:25.526Z,1.25
2018-07-15T19:17:08.466Z,2.50
2018-07-15T19:19:42.407Z,1.25
2018-07-15T19:22:15.418Z,2.00
2018-07-15T19:24:50.029Z,2.00
2018-07-15T19:27:23.980Z,1.00
2018-07-15T19:30:08.200Z,2.00
2018-07-15T19:32:39.758Z,3.00
2018-07-15T19:35:17.249Z,2.25
2018-07-15T19:37:51.642Z,2.00
2018-07-15T19:40:23.153Z,2.00
2018-07-15T19:45:39.647Z,2.00
2018-07-15T19:48:15.241Z,2.00
2018-07-15T19:50:48.559Z,1.25
2018-07-15T19:53:20.325Z,2.00
2018-07-15T19:55:53.389Z,1.00
2018-07-15T19:58:25.972Z,1.50
2018-07-15T20:00:58.916Z,1.00
2018-07-15T20:03:32.287Z,2.00
2018-07-15T20:06:03.488Z,2.00
2018-07-15T20:08:39.678Z,3.00
2018-07-15T20:11:14.874Z,2.25
2018-07-15T20:13:48.353Z,2.00
2018-07-15T20:16:26.036Z,3.00
2018-07-15T20:19:00.625Z,1.50
2018-07-15T20:21:33.338Z,3.00
2018-07-15T20:24:07.182Z,1.50
2018-07-15T20:26:38.356Z,2.00
2018-07-15T20:29:11.387Z,3.00
2018-07-15T20:31:47.158Z,1.50
2018-07-15T20:34:20.097Z,1.50
2018-07-15T20:37:14.764Z,2.00
2018-07-15T20:39:52.370Z,2.00
2018-07-15T20:42:24.681Z,1.75
2018-07-15T20:44:58.497Z,3.25
2018-07-15T20:47:30.348Z,2.75
2018-07-15T20:50:01.588Z,2.50
2018-07-15T20:52:33.409Z,2.75
2018-07-15T20:55:09.513Z,2.75
2018-07-15T20:57:46.780Z,2.50
2018-07-15T21:00:20.299Z,2.75
2018-07-15T21:02:59.521Z,3.50
2018-07-15T21:05:36.917Z,3.50
2018-07-15T21:08:13.280Z,2.50
2018-07-15T21:10:49.578Z,2.75
2018-07-15T21:13:26.471Z,4.25
2018-07-15T21:16:02.414Z,3.25
2018-07-15T21:18:34.053Z,1.75
2018-07-15T21:21:06.775Z,3.25
2018-07-15T21:23:37.598Z,3.50
2018-07-15T21:26:09.161Z,2.00
2018-07-15T21:28:39.433Z,3.00
2018-07-15T21:31:11.755Z,2.00
2018-07-15T21:33:43.915Z,3.50
2018-07-15T21:36:15.671Z,3.50
2018-07-15T21:38:48.458Z,2.50
2018-07-15T21:41:18.779Z,2.50
2018-07-15T21:43:57.680Z,2.50
2018-07-15T21:46:31.487Z,3.25
2018-07-15T21:49:04.377Z,2.75
2018-07-15T21:51:36.970Z,2.50
2018-07-15T21:54:10.433Z,2.50
2018-07-15T21:56:43.877Z,2.75
2018-07-15T21:59:14.253Z,2.75
2018-07-15T22:01:45.602Z,3.75
2018-07-15T22:04:16.611Z,4.75
2018-07-15T22:07:00.351Z,3.75
2018-07-15T22:09:56.971Z,3.25
2018-07-15T22:12:27.345Z,3.75
2018-07-15T22:14:58.107Z,4.00
2018-07-15T22:17:28.608Z,4.00
2018-07-15T22:20:01.171Z,3.75
2018-07-15T22:22:32.260Z,3.75
2018-07-15T22:25:03.445Z,4.00
2018-07-15T22:27:34.519Z,3.50
2018-07-15T22:30:08.744Z,4.25
2018-07-15T22:32:39.915Z,3.75
2018-07-15T22:35:13.660Z,4.25
2018-07-15T22:40:19.544Z,4.25
2018-07-15T22:42:59.631Z,3.75
2018-07-15T22:45:37.797Z,5.50
2018-07-15T22:48:08.504Z,4.75
2018-07-15T22:50:38.757Z,3.00
2018-07-15T22:53:17.267Z,3.50
2018-07-15T22:55:48.642Z,5.00
2018-07-15T22:58:27.860Z,4.00
2018-07-15T23:01:00.592Z,4.00
2018-07-15T23:03:31.037Z,4.25
2018-07-15T23:06:12.248Z,4.75
2018-07-15T23:08:42.517Z,5.00
2018-07-15T23:11:12.834Z,3.75
2018-07-15T23:13:43.903Z,4.00
2018-07-15T23:16:14.393Z,4.00
2018-07-15T23:18:45.114Z,4.75
2018-07-15T23:21:15.584Z,5.25
2018-07-15T23:23:46.421Z,4.75
2018-07-15T23:26:16.561Z,4.75
2018-07-15T23:28:47.727Z,5.00
2018-07-15T23:31:18.678Z,5.00
2018-07-15T23:33:48.934Z,4.75
2018-07-15T23:36:20.498Z,5.25
2018-07-15T23:38:54.180Z,5.00
2018-07-15T23:41:24.545Z,5.00
2018-07-15T23:43:54.824Z,5.00
2018-07-15T23:46:26.448Z,6.00
2018-07-15T23:48:57.371Z,5.25
2018-07-15T23:51:30.273Z,6.00
2018-07-15T23:54:02.760Z,5.25
2018-07-15T23:56:32.928Z,6.00
2018-07-15T23:59:04.025Z,5.00
